North Platte, NE

4:42 PM CST on February 08, 2016 (GMT -0600)
K0KDC North Platte | | Change Station
CLOSE
Current Station
Personal Weather Station
Location: North Platte, NE
Elevation: 2808 ft
Nearby Weather Stations

Elev 2808 ft 41.14 °N, 100.77 °W | Updated 2 minutes ago

Partly Cloudy
Partly Cloudy
36.4 °F
Feels Like 29 °F
N
10.0
Wind Variable Wind from NW
Gusts 20.0 mph

Today
High -- | Low -- °F
--% Chance of Precip.
Yesterday
High -- | Low -- °F
Precip. -- in
Pressure 30.33 in
Visibility 10.0 miles
Clouds Clear
Windchill 29 °F
Dew Point 17 °F
Humidity 45%
Rainfall 0.00 in
Snow Depth Not available.
7:46 AM 6:08 PM
New Moon, 0% visible
METAR KLBF 082153Z AUTO 33018G28KT 10SM CLR 02/M10 A3025 RMK AO2 PK WND 32032/2113 SLP269 T00221100
Pressure 30.33 in
Visibility 10.0 miles
Clouds Clear
Windchill 29 °F
Dew Point 17 °F
Humidity 45%
Rainfall 0.00 in
Snow Depth Not available.
7:46 AM 6:08 PM
New Moon, 0% visible
METAR KLBF 082153Z AUTO 33018G28KT 10SM CLR 02/M10 A3025 RMK AO2 PK WND 32032/2113 SLP269 T00221100

10-Day Weather Forecast

Almanac

Astronomy

Feb. 08, 2016 Rise Set
Actual Time
Civil Twilight
Nautical Twilight
Astronomical Twilight
Moon
Length of Visible Light
Length of Day
Tomorrow will be .
, % of the Moon is Illuminated

Today's Extremes

State Highs State Lows

Community

WunderPhotos

Upload Photos

1,891,521 photos uploaded!

WunderBlog® & News

Nearby

Air Quality

  Air Quality AQ Index Pollutant
Not available.

Snow Depth

Station Depth Elevation

Earthquake Activity

City Distance Mag. Time & Date
Minimum magnitude displayed is 2.5.

Coastal Water Temperatures

Place Temperature

Stations

Nearby Weather Stations

Station Location Temp. Windchill Dew Point Humidity Wind Precip. Elev Updated Type
                   

Watches & Warnings

There are currently no watches in effect.